sensor_id;sensor_type;location;lat;lon;timestamp;temperature;humidity
18797;DHT22;9526;52.612;13.300;2022-11-14T00:00:24;7.50;99.90
18797;DHT22;9526;52.612;13.300;2022-11-14T00:03:09;7.50;99.90
18797;DHT22;9526;52.612;13.300;2022-11-14T00:05:52;7.50;99.90
18797;DHT22;9526;52.612;13.300;2022-11-14T00:08:34;7.50;99.90
18797;DHT22;9526;52.612;13.300;2022-11-14T00:11:16;7.50;99.90
18797;DHT22;9526;52.612;13.300;2022-11-14T00:13:58;7.50;99.90
18797;DHT22;9526;52.612;13.300;2022-11-14T00:16:40;7.50;99.90
18797;DHT22;9526;52.612;13.300;2022-11-14T00:19:24;7.40;99.90
18797;DHT22;9526;52.612;13.300;2022-11-14T00:22:06;7.40;99.90
18797;DHT22;9526;52.612;13.300;2022-11-14T00:24:48;7.40;99.90
18797;DHT22;9526;52.612;13.300;2022-11-14T00:27:31;7.40;99.90
18797;DHT22;9526;52.612;13.300;2022-11-14T00:30:14;7.40;99.90
18797;DHT22;9526;52.612;13.300;2022-11-14T00:32:56;7.40;99.90
18797;DHT22;9526;52.612;13.300;2022-11-14T00:35:39;7.40;99.90
18797;DHT22;9526;52.612;13.300;2022-11-14T00:38:22;7.40;99.90
18797;DHT22;9526;52.612;13.300;2022-11-14T00:41:04;7.30;99.90
18797;DHT22;9526;52.612;13.300;2022-11-14T00:43:47;7.30;99.90
18797;DHT22;9526;52.612;13.300;2022-11-14T00:46:29;7.30;99.90
18797;DHT22;9526;52.612;13.300;2022-11-14T00:49:11;7.30;99.90
18797;DHT22;9526;52.612;13.300;2022-11-14T00:51:54;7.30;99.90
18797;DHT22;9526;52.612;13.300;2022-11-14T00:54:36;7.30;99.90
18797;DHT22;9526;52.612;13.300;2022-11-14T00:57:19;7.30;99.90
18797;DHT22;9526;52.612;13.300;2022-11-14T01:00:01;7.30;99.90
18797;DHT22;9526;52.612;13.300;2022-11-14T01:02:43;7.40;99.90
18797;DHT22;9526;52.612;13.300;2022-11-14T01:05:25;7.40;99.90
18797;DHT22;9526;52.612;13.300;2022-11-14T01:08:09;7.30;99.90
18797;DHT22;9526;52.612;13.300;2022-11-14T01:10:51;7.40;99.90
18797;DHT22;9526;52.612;13.300;2022-11-14T01:13:34;7.30;99.90
18797;DHT22;9526;52.612;13.300;2022-11-14T01:16:16;7.30;99.90
18797;DHT22;9526;52.612;13.300;2022-11-14T01:18:59;7.30;99.90
18797;DHT22;9526;52.612;13.300;2022-11-14T01:21:41;7.30;99.90
18797;DHT22;9526;52.612;13.300;2022-11-14T01:24:25;7.30;99.90
18797;DHT22;9526;52.612;13.300;2022-11-14T01:27:07;7.30;99.90
18797;DHT22;9526;52.612;13.300;2022-11-14T01:29:49;7.20;99.90
18797;DHT22;9526;52.612;13.300;2022-11-14T01:32:31;7.20;99.90
18797;DHT22;9526;52.612;13.300;2022-11-14T01:35:13;7.20;99.90
18797;DHT22;9526;52.612;13.300;2022-11-14T01:37:56;7.20;99.90
18797;DHT22;9526;52.612;13.300;2022-11-14T01:40:42;7.10;99.90
18797;DHT22;9526;52.612;13.300;2022-11-14T01:43:26;7.10;99.90
18797;DHT22;9526;52.612;13.300;2022-11-14T01:46:13;7.10;99.90
18797;DHT22;9526;52.612;13.300;2022-11-14T01:49:01;7.10;99.90
18797;DHT22;9526;52.612;13.300;2022-11-14T01:51:49;7.10;99.90
18797;DHT22;9526;52.612;13.300;2022-11-14T01:54:34;7.10;99.90
18797;DHT22;9526;52.612;13.300;2022-11-14T01:57:21;7.00;99.90
18797;DHT22;9526;52.612;13.300;2022-11-14T02:00:07;7.00;99.90
18797;DHT22;9526;52.612;13.300;2022-11-14T02:02:52;7.00;99.90
18797;DHT22;9526;52.612;13.300;2022-11-14T02:05:34;6.90;99.90
18797;DHT22;9526;52.612;13.300;2022-11-14T02:08:17;6.90;99.90
18797;DHT22;9526;52.612;13.300;2022-11-14T02:10:59;6.90;99.90
18797;DHT22;9526;52.612;13.300;2022-11-14T02:13:43;6.80;99.90
18797;DHT22;9526;52.612;13.300;2022-11-14T02:16:25;6.80;99.90
18797;DHT22;9526;52.612;13.300;2022-11-14T02:19:07;6.70;99.90
18797;DHT22;9526;52.612;13.300;2022-11-14T02:21:51;6.70;99.90
18797;DHT22;9526;52.612;13.300;2022-11-14T02:24:33;6.70;99.90
18797;DHT22;9526;52.612;13.300;2022-11-14T02:27:15;6.70;99.90
18797;DHT22;9526;52.612;13.300;2022-11-14T02:30:03;6.70;99.90
18797;DHT22;9526;52.612;13.300;2022-11-14T02:32:46;6.60;99.90
18797;DHT22;9526;52.612;13.300;2022-11-14T02:35:48;6.70;99.90
18797;DHT22;9526;52.612;13.300;2022-11-14T02:38:32;6.70;99.90
18797;DHT22;9526;52.612;13.300;2022-11-14T02:41:13;6.70;99.90
18797;DHT22;9526;52.612;13.300;2022-11-14T02:43:55;6.70;99.90
18797;DHT22;9526;52.612;13.300;2022-11-14T02:46:37;6.70;99.90
18797;DHT22;9526;52.612;13.300;2022-11-14T02:49:20;6.70;99.90
18797;DHT22;9526;52.612;13.300;2022-11-14T02:52:03;6.70;99.90
18797;DHT22;9526;52.612;13.300;2022-11-14T02:54:46;6.80;99.90
18797;DHT22;9526;52.612;13.300;2022-11-14T02:57:34;6.80;99.90
18797;DHT22;9526;52.612;13.300;2022-11-14T03:00:17;6.80;99.90
18797;DHT22;9526;52.612;13.300;2022-11-14T03:03:00;6.90;99.90
18797;DHT22;9526;52.612;13.300;2022-11-14T03:05:42;6.90;99.90
18797;DHT22;9526;52.612;13.300;2022-11-14T03:08:25;6.90;99.90
18797;DHT22;9526;52.612;13.300;2022-11-14T03:11:09;6.90;99.90
18797;DHT22;9526;52.612;13.300;2022-11-14T03:13:52;7.00;99.90
18797;DHT22;9526;52.612;13.300;2022-11-14T03:16:34;7.00;99.90
18797;DHT22;9526;52.612;13.300;2022-11-14T03:19:16;7.00;99.90
18797;DHT22;9526;52.612;13.300;2022-11-14T03:21:58;7.00;99.90
18797;DHT22;9526;52.612;13.300;2022-11-14T03:24:41;7.10;99.90
18797;DHT22;9526;52.612;13.300;2022-11-14T03:27:24;7.10;99.90
18797;DHT22;9526;52.612;13.300;2022-11-14T03:30:07;7.00;99.90
18797;DHT22;9526;52.612;13.300;2022-11-14T03:32:50;7.10;99.90
18797;DHT22;9526;52.612;13.300;2022-11-14T03:35:32;7.00;99.90
18797;DHT22;9526;52.612;13.300;2022-11-14T03:38:14;7.00;99.90
18797;DHT22;9526;52.612;13.300;2022-11-14T03:40:57;7.10;99.90
18797;DHT22;9526;52.612;13.300;2022-11-14T03:43:41;7.10;99.90
18797;DHT22;9526;52.612;13.300;2022-11-14T03:46:23;7.10;99.90
18797;DHT22;9526;52.612;13.300;2022-11-14T03:49:05;7.10;99.90
18797;DHT22;9526;52.612;13.300;2022-11-14T03:51:48;7.10;99.90
18797;DHT22;9526;52.612;13.300;2022-11-14T03:54:29;7.10;99.90
18797;DHT22;9526;52.612;13.300;2022-11-14T03:57:12;7.10;99.90
18797;DHT22;9526;52.612;13.300;2022-11-14T03:59:56;7.10;99.90
18797;DHT22;9526;52.612;13.300;2022-11-14T04:02:38;7.00;99.90
18797;DHT22;9526;52.612;13.300;2022-11-14T04:05:20;7.10;99.90
18797;DHT22;9526;52.612;13.300;2022-11-14T04:08:03;7.00;99.90
18797;DHT22;9526;52.612;13.300;2022-11-14T04:10:46;7.00;99.90
18797;DHT22;9526;52.612;13.300;2022-11-14T04:13:28;7.00;99.90
18797;DHT22;9526;52.612;13.300;2022-11-14T04:16:12;7.00;99.90
18797;DHT22;9526;52.612;13.300;2022-11-14T04:18:54;7.00;99.90
18797;DHT22;9526;52.612;13.300;2022-11-14T04:21:36;7.00;99.90
18797;DHT22;9526;52.612;13.300;2022-11-14T04:24:18;7.00;99.90
18797;DHT22;9526;52.612;13.300;2022-11-14T04:27:01;7.00;99.90
18797;DHT22;9526;52.612;13.300;2022-11-14T04:29:43;6.90;99.90
18797;DHT22;9526;52.612;13.300;2022-11-14T04:32:26;6.90;99.90
18797;DHT22;9526;52.612;13.300;2022-11-14T04:35:09;7.00;99.90
18797;DHT22;9526;52.612;13.300;2022-11-14T04:37:50;7.00;99.90
18797;DHT22;9526;52.612;13.300;2022-11-14T04:40:33;6.90;99.90
18797;DHT22;9526;52.612;13.300;2022-11-14T04:43:15;6.90;99.90
18797;DHT22;9526;52.612;13.300;2022-11-14T04:45:57;6.90;99.90
18797;DHT22;9526;52.612;13.300;2022-11-14T04:48:41;7.00;99.90
18797;DHT22;9526;52.612;13.300;2022-11-14T04:51:23;7.00;99.90
18797;DHT22;9526;52.612;13.300;2022-11-14T04:54:05;6.90;99.90
18797;DHT22;9526;52.612;13.300;2022-11-14T04:56:47;6.90;99.90
18797;DHT22;9526;52.612;13.300;2022-11-14T04:59:29;6.90;99.90
18797;DHT22;9526;52.612;13.300;2022-11-14T05:02:11;6.90;99.90
18797;DHT22;9526;52.612;13.300;2022-11-14T05:04:55;6.90;99.90
18797;DHT22;9526;52.612;13.300;2022-11-14T05:07:37;6.80;99.90
18797;DHT22;9526;52.612;13.300;2022-11-14T05:10:19;6.80;99.90
18797;DHT22;9526;52.612;13.300;2022-11-14T05:13:01;6.80;99.90
18797;DHT22;9526;52.612;13.300;2022-11-14T05:15:44;6.80;99.90
18797;DHT22;9526;52.612;13.300;2022-11-14T05:18:26;6.80;99.90
18797;DHT22;9526;52.612;13.300;2022-11-14T05:21:12;6.80;99.90
18797;DHT22;9526;52.612;13.300;2022-11-14T05:23:54;6.80;99.90
18797;DHT22;9526;52.612;13.300;2022-11-14T05:26:36;6.70;99.90
18797;DHT22;9526;52.612;13.300;2022-11-14T05:29:19;6.70;99.90
18797;DHT22;9526;52.612;13.300;2022-11-14T05:32:01;6.70;99.90
18797;DHT22;9526;52.612;13.300;2022-11-14T05:34:44;6.70;99.90
18797;DHT22;9526;52.612;13.300;2022-11-14T05:37:27;6.70;99.90
18797;DHT22;9526;52.612;13.300;2022-11-14T05:40:10;6.70;99.90
18797;DHT22;9526;52.612;13.300;2022-11-14T05:42:54;6.70;99.90
18797;DHT22;9526;52.612;13.300;2022-11-14T05:45:36;6.70;99.90
18797;DHT22;9526;52.612;13.300;2022-11-14T05:48:18;6.70;99.90
18797;DHT22;9526;52.612;13.300;2022-11-14T05:51:02;6.70;99.90
18797;DHT22;9526;52.612;13.300;2022-11-14T05:53:46;6.60;99.90
18797;DHT22;9526;52.612;13.300;2022-11-14T05:56:28;6.70;99.90
18797;DHT22;9526;52.612;13.300;2022-11-14T05:59:11;6.70;99.90
18797;DHT22;9526;52.612;13.300;2022-11-14T06:01:53;6.60;99.90
18797;DHT22;9526;52.612;13.300;2022-11-14T06:04:36;6.70;99.90
18797;DHT22;9526;52.612;13.300;2022-11-14T06:07:18;6.70;99.90
18797;DHT22;9526;52.612;13.300;2022-11-14T06:10:01;6.70;99.90
18797;DHT22;9526;52.612;13.300;2022-11-14T06:12:44;6.70;99.90
18797;DHT22;9526;52.612;13.300;2022-11-14T06:15:26;6.70;99.90
18797;DHT22;9526;52.612;13.300;2022-11-14T06:18:08;6.70;99.90
18797;DHT22;9526;52.612;13.300;2022-11-14T06:20:51;6.70;99.90
18797;DHT22;9526;52.612;13.300;2022-11-14T06:23:33;6.70;99.90
18797;DHT22;9526;52.612;13.300;2022-11-14T06:26:20;6.70;99.90
18797;DHT22;9526;52.612;13.300;2022-11-14T06:29:02;6.70;99.90
18797;DHT22;9526;52.612;13.300;2022-11-14T06:31:45;6.70;99.90
18797;DHT22;9526;52.612;13.300;2022-11-14T06:34:27;6.70;99.90
18797;DHT22;9526;52.612;13.300;2022-11-14T06:37:09;6.70;99.90
18797;DHT22;9526;52.612;13.300;2022-11-14T06:39:52;6.70;99.90
18797;DHT22;9526;52.612;13.300;2022-11-14T06:42:35;6.70;99.90
18797;DHT22;9526;52.612;13.300;2022-11-14T06:45:17;6.70;99.90
18797;DHT22;9526;52.612;13.300;2022-11-14T06:48:00;6.70;99.90
18797;DHT22;9526;52.612;13.300;2022-11-14T06:50:43;6.60;99.90
18797;DHT22;9526;52.612;13.300;2022-11-14T06:53:26;6.60;99.90
18797;DHT22;9526;52.612;13.300;2022-11-14T06:56:10;6.60;99.90
18797;DHT22;9526;52.612;13.300;2022-11-14T06:58:54;6.60;99.90
18797;DHT22;9526;52.612;13.300;2022-11-14T07:01:37;6.60;99.90
18797;DHT22;9526;52.612;13.300;2022-11-14T07:04:19;6.70;99.90
18797;DHT22;9526;52.612;13.300;2022-11-14T07:07:01;6.70;99.90
18797;DHT22;9526;52.612;13.300;2022-11-14T07:09:43;6.70;99.90
18797;DHT22;9526;52.612;13.300;2022-11-14T07:12:26;6.70;99.90
18797;DHT22;9526;52.612;13.300;2022-11-14T07:15:10;6.70;99.90
18797;DHT22;9526;52.612;13.300;2022-11-14T07:17:52;6.70;99.90
18797;DHT22;9526;52.612;13.300;2022-11-14T07:20:35;6.80;99.90
18797;DHT22;9526;52.612;13.300;2022-11-14T07:23:17;6.80;99.90
18797;DHT22;9526;52.612;13.300;2022-11-14T07:26:03;6.80;99.90
18797;DHT22;9526;52.612;13.300;2022-11-14T07:28:48;6.80;99.90
18797;DHT22;9526;52.612;13.300;2022-11-14T07:31:36;6.70;99.90
18797;DHT22;9526;52.612;13.300;2022-11-14T07:34:18;6.80;99.90
18797;DHT22;9526;52.612;13.300;2022-11-14T07:37:00;6.90;99.90
18797;DHT22;9526;52.612;13.300;2022-11-14T07:39:42;6.80;99.90
18797;DHT22;9526;52.612;13.300;2022-11-14T07:42:28;6.80;99.90
18797;DHT22;9526;52.612;13.300;2022-11-14T07:45:10;6.80;99.90
18797;DHT22;9526;52.612;13.300;2022-11-14T07:47:55;6.80;99.90
18797;DHT22;9526;52.612;13.300;2022-11-14T07:50:37;6.80;99.90
18797;DHT22;9526;52.612;13.300;2022-11-14T07:53:20;6.90;99.90
18797;DHT22;9526;52.612;13.300;2022-11-14T07:56:03;6.90;99.90
18797;DHT22;9526;52.612;13.300;2022-11-14T07:58:46;7.00;99.90
18797;DHT22;9526;52.612;13.300;2022-11-14T08:01:28;7.00;99.90
18797;DHT22;9526;52.612;13.300;2022-11-14T08:04:12;7.00;99.90
18797;DHT22;9526;52.612;13.300;2022-11-14T08:06:54;6.90;99.90
18797;DHT22;9526;52.612;13.300;2022-11-14T08:09:37;7.00;99.90
18797;DHT22;9526;52.612;13.300;2022-11-14T08:12:19;7.00;99.90
18797;DHT22;9526;52.612;13.300;2022-11-14T08:15:01;7.10;99.90
18797;DHT22;9526;52.612;13.300;2022-11-14T08:17:43;7.10;99.90
18797;DHT22;9526;52.612;13.300;2022-11-14T08:20:27;7.20;99.90
18797;DHT22;9526;52.612;13.300;2022-11-14T08:23:10;7.20;99.90
18797;DHT22;9526;52.612;13.300;2022-11-14T08:25:53;7.20;99.90
18797;DHT22;9526;52.612;13.300;2022-11-14T08:28:35;7.10;99.90
18797;DHT22;9526;52.612;13.300;2022-11-14T08:31:17;7.10;99.90
18797;DHT22;9526;52.612;13.300;2022-11-14T08:34:00;7.10;99.90
18797;DHT22;9526;52.612;13.300;2022-11-14T08:36:43;7.10;99.90
18797;DHT22;9526;52.612;13.300;2022-11-14T08:39:25;7.10;99.90
18797;DHT22;9526;52.612;13.300;2022-11-14T08:42:08;7.20;99.90
18797;DHT22;9526;52.612;13.300;2022-11-14T08:44:49;7.20;99.90
18797;DHT22;9526;52.612;13.300;2022-11-14T08:47:32;7.30;99.90
18797;DHT22;9526;52.612;13.300;2022-11-14T08:50:14;7.30;99.90
18797;DHT22;9526;52.612;13.300;2022-11-14T08:52:58;7.30;99.90
18797;DHT22;9526;52.612;13.300;2022-11-14T08:55:43;7.30;99.90
18797;DHT22;9526;52.612;13.300;2022-11-14T08:58:27;7.30;99.90
18797;DHT22;9526;52.612;13.300;2022-11-14T09:01:11;7.40;99.90
18797;DHT22;9526;52.612;13.300;2022-11-14T09:03:53;7.30;99.90
18797;DHT22;9526;52.612;13.300;2022-11-14T09:06:39;7.30;99.90
18797;DHT22;9526;52.612;13.300;2022-11-14T09:09:23;7.40;99.90
18797;DHT22;9526;52.612;13.300;2022-11-14T09:12:05;7.40;99.90
18797;DHT22;9526;52.612;13.300;2022-11-14T09:14:48;7.50;99.90
18797;DHT22;9526;52.612;13.300;2022-11-14T09:17:30;7.60;99.90
18797;DHT22;9526;52.612;13.300;2022-11-14T09:20:13;7.70;99.90
18797;DHT22;9526;52.612;13.300;2022-11-14T09:22:57;7.80;99.90
18797;DHT22;9526;52.612;13.300;2022-11-14T09:25:41;8.00;99.90
18797;DHT22;9526;52.612;13.300;2022-11-14T09:28:23;8.20;99.90
18797;DHT22;9526;52.612;13.300;2022-11-14T09:31:07;8.40;99.90
18797;DHT22;9526;52.612;13.300;2022-11-14T09:33:51;8.50;99.90
18797;DHT22;9526;52.612;13.300;2022-11-14T09:36:33;8.40;99.90
18797;DHT22;9526;52.612;13.300;2022-11-14T09:39:16;8.50;99.90
18797;DHT22;9526;52.612;13.300;2022-11-14T09:42:11;8.60;99.90
18797;DHT22;9526;52.612;13.300;2022-11-14T09:45:02;8.70;99.90
18797;DHT22;9526;52.612;13.300;2022-11-14T09:47:48;8.80;99.90
18797;DHT22;9526;52.612;13.300;2022-11-14T09:50:34;8.70;99.90
18797;DHT22;9526;52.612;13.300;2022-11-14T09:53:25;8.60;99.90
18797;DHT22;9526;52.612;13.300;2022-11-14T09:56:12;8.60;99.90
18797;DHT22;9526;52.612;13.300;2022-11-14T09:58:59;8.60;99.90
18797;DHT22;9526;52.612;13.300;2022-11-14T10:01:47;8.60;99.90
18797;DHT22;9526;52.612;13.300;2022-11-14T10:04:43;8.70;99.90
18797;DHT22;9526;52.612;13.300;2022-11-14T10:07:38;8.70;99.90
18797;DHT22;9526;52.612;13.300;2022-11-14T10:10:37;8.80;99.90
18797;DHT22;9526;52.612;13.300;2022-11-14T10:13:37;8.80;99.90
18797;DHT22;9526;52.612;13.300;2022-11-14T10:16:36;8.80;99.90
18797;DHT22;9526;52.612;13.300;2022-11-14T10:19:28;8.80;99.90
18797;DHT22;9526;52.612;13.300;2022-11-14T10:22:34;8.90;99.90
18797;DHT22;9526;52.612;13.300;2022-11-14T10:25:27;8.90;99.90
18797;DHT22;9526;52.612;13.300;2022-11-14T10:28:27;8.90;99.90
18797;DHT22;9526;52.612;13.300;2022-11-14T10:31:24;9.00;99.90
18797;DHT22;9526;52.612;13.300;2022-11-14T10:34:17;9.10;99.90
18797;DHT22;9526;52.612;13.300;2022-11-14T10:37:14;9.00;99.90
18797;DHT22;9526;52.612;13.300;2022-11-14T10:40:15;9.10;99.90
18797;DHT22;9526;52.612;13.300;2022-11-14T10:43:02;9.10;99.90
18797;DHT22;9526;52.612;13.300;2022-11-14T10:45:51;9.20;99.90
18797;DHT22;9526;52.612;13.300;2022-11-14T10:48:39;9.20;99.90
18797;DHT22;9526;52.612;13.300;2022-11-14T10:51:28;9.20;99.90
18797;DHT22;9526;52.612;13.300;2022-11-14T10:54:18;9.30;99.90
18797;DHT22;9526;52.612;13.300;2022-11-14T10:57:02;9.30;99.90
18797;DHT22;9526;52.612;13.300;2022-11-14T10:59:54;9.30;99.90
18797;DHT22;9526;52.612;13.300;2022-11-14T11:02:48;9.40;99.90
18797;DHT22;9526;52.612;13.300;2022-11-14T11:05:44;9.40;99.90
18797;DHT22;9526;52.612;13.300;2022-11-14T11:08:27;9.40;99.90
18797;DHT22;9526;52.612;13.300;2022-11-14T11:11:27;9.50;99.90
18797;DHT22;9526;52.612;13.300;2022-11-14T11:14:15;9.50;99.90
18797;DHT22;9526;52.612;13.300;2022-11-14T11:17:22;9.50;99.90
18797;DHT22;9526;52.612;13.300;2022-11-14T11:20:25;9.50;99.90
18797;DHT22;9526;52.612;13.300;2022-11-14T11:23:17;9.60;99.90
18797;DHT22;9526;52.612;13.300;2022-11-14T11:26:05;9.60;99.90
18797;DHT22;9526;52.612;13.300;2022-11-14T11:29:04;9.70;99.90
18797;DHT22;9526;52.612;13.300;2022-11-14T11:31:49;9.70;99.90
18797;DHT22;9526;52.612;13.300;2022-11-14T11:34:33;9.70;99.90
18797;DHT22;9526;52.612;13.300;2022-11-14T11:37:18;9.70;99.90
18797;DHT22;9526;52.612;13.300;2022-11-14T11:40:05;9.80;99.90
18797;DHT22;9526;52.612;13.300;2022-11-14T11:42:59;9.80;99.90
18797;DHT22;9526;52.612;13.300;2022-11-14T11:46:10;9.90;99.90
18797;DHT22;9526;52.612;13.300;2022-11-14T11:49:01;9.90;99.90
18797;DHT22;9526;52.612;13.300;2022-11-14T11:51:46;10.00;99.90
18797;DHT22;9526;52.612;13.300;2022-11-14T11:54:49;10.00;99.90
18797;DHT22;9526;52.612;13.300;2022-11-14T11:57:39;10.00;99.90
18797;DHT22;9526;52.612;13.300;2022-11-14T12:00:24;9.90;99.90
18797;DHT22;9526;52.612;13.300;2022-11-14T12:03:10;9.90;99.90
18797;DHT22;9526;52.612;13.300;2022-11-14T12:06:15;9.90;99.90
18797;DHT22;9526;52.612;13.300;2022-11-14T12:09:12;9.90;99.90
18797;DHT22;9526;52.612;13.300;2022-11-14T12:12:00;10.00;99.90
18797;DHT22;9526;52.612;13.300;2022-11-14T12:14:56;10.00;99.90
18797;DHT22;9526;52.612;13.300;2022-11-14T12:18:24;10.10;99.90
18797;DHT22;9526;52.612;13.300;2022-11-14T12:21:34;10.00;99.90
18797;DHT22;9526;52.612;13.300;2022-11-14T12:24:44;10.00;99.90
18797;DHT22;9526;52.612;13.300;2022-11-14T12:28:04;10.20;99.90
18797;DHT22;9526;52.612;13.300;2022-11-14T12:30:59;10.20;99.90
18797;DHT22;9526;52.612;13.300;2022-11-14T12:33:45;10.20;99.90
18797;DHT22;9526;52.612;13.300;2022-11-14T12:36:33;10.30;99.90
18797;DHT22;9526;52.612;13.300;2022-11-14T12:39:23;10.30;99.90
18797;DHT22;9526;52.612;13.300;2022-11-14T12:42:08;10.30;99.90
18797;DHT22;9526;52.612;13.300;2022-11-14T12:44:54;10.40;99.90
18797;DHT22;9526;52.612;13.300;2022-11-14T12:48:13;10.40;99.90
18797;DHT22;9526;52.612;13.300;2022-11-14T12:50:58;10.50;99.90
18797;DHT22;9526;52.612;13.300;2022-11-14T12:53:41;10.50;99.90
18797;DHT22;9526;52.612;13.300;2022-11-14T12:59:56;10.60;99.90
18797;DHT22;9526;52.612;13.300;2022-11-14T13:03:07;10.70;99.90
18797;DHT22;9526;52.612;13.300;2022-11-14T13:05:59;10.70;99.90
18797;DHT22;9526;52.612;13.300;2022-11-14T13:09:02;10.70;99.90
18797;DHT22;9526;52.612;13.300;2022-11-14T13:11:52;10.70;99.90
18797;DHT22;9526;52.612;13.300;2022-11-14T13:14:55;10.80;99.90
18797;DHT22;9526;52.612;13.300;2022-11-14T13:18:07;10.80;99.90
18797;DHT22;9526;52.612;13.300;2022-11-14T13:21:21;10.90;99.90
18797;DHT22;9526;52.612;13.300;2022-11-14T13:24:25;11.00;99.90
18797;DHT22;9526;52.612;13.300;2022-11-14T13:27:24;10.90;99.90
18797;DHT22;9526;52.612;13.300;2022-11-14T13:31:15;10.90;99.90
18797;DHT22;9526;52.612;13.300;2022-11-14T13:37:26;11.00;99.90
18797;DHT22;9526;52.612;13.300;2022-11-14T13:40:22;11.00;99.90
18797;DHT22;9526;52.612;13.300;2022-11-14T13:43:16;11.00;99.90
18797;DHT22;9526;52.612;13.300;2022-11-14T13:46:09;11.00;99.90
18797;DHT22;9526;52.612;13.300;2022-11-14T13:49:22;11.00;99.90
18797;DHT22;9526;52.612;13.300;2022-11-14T13:52:13;11.00;99.90
18797;DHT22;9526;52.612;13.300;2022-11-14T13:54:56;11.10;99.90
18797;DHT22;9526;52.612;13.300;2022-11-14T13:57:46;11.10;99.90
18797;DHT22;9526;52.612;13.300;2022-11-14T14:00:53;11.10;99.90
18797;DHT22;9526;52.612;13.300;2022-11-14T14:03:53;11.10;99.90
18797;DHT22;9526;52.612;13.300;2022-11-14T14:06:52;11.00;99.90
18797;DHT22;9526;52.612;13.300;2022-11-14T14:09:49;11.10;99.90
18797;DHT22;9526;52.612;13.300;2022-11-14T14:12:48;11.00;99.90
18797;DHT22;9526;52.612;13.300;2022-11-14T14:15:45;11.10;99.90
18797;DHT22;9526;52.612;13.300;2022-11-14T14:18:43;11.00;99.90
18797;DHT22;9526;52.612;13.300;2022-11-14T14:21:36;11.00;99.90
18797;DHT22;9526;52.612;13.300;2022-11-14T14:24:48;11.00;99.90
18797;DHT22;9526;52.612;13.300;2022-11-14T14:27:38;10.90;99.90
18797;DHT22;9526;52.612;13.300;2022-11-14T14:30:30;10.90;99.90
18797;DHT22;9526;52.612;13.300;2022-11-14T14:33:15;10.90;99.90
18797;DHT22;9526;52.612;13.300;2022-11-14T14:35:57;10.90;99.90
18797;DHT22;9526;52.612;13.300;2022-11-14T14:38:39;10.80;99.90
18797;DHT22;9526;52.612;13.300;2022-11-14T14:41:23;10.80;99.90
18797;DHT22;9526;52.612;13.300;2022-11-14T14:44:18;10.80;99.90
18797;DHT22;9526;52.612;13.300;2022-11-14T14:47:14;10.70;99.90
18797;DHT22;9526;52.612;13.300;2022-11-14T14:50:12;10.70;99.90
18797;DHT22;9526;52.612;13.300;2022-11-14T14:52:58;10.70;99.90
18797;DHT22;9526;52.612;13.300;2022-11-14T14:55:50;10.60;99.90
18797;DHT22;9526;52.612;13.300;2022-11-14T14:58:35;10.50;99.90
18797;DHT22;9526;52.612;13.300;2022-11-14T15:01:19;10.50;99.90
18797;DHT22;9526;52.612;13.300;2022-11-14T15:04:05;10.40;99.90
18797;DHT22;9526;52.612;13.300;2022-11-14T15:06:47;10.40;99.90
18797;DHT22;9526;52.612;13.300;2022-11-14T15:09:30;10.30;99.90
18797;DHT22;9526;52.612;13.300;2022-11-14T15:12:13;10.20;99.90
18797;DHT22;9526;52.612;13.300;2022-11-14T15:14:57;10.20;99.90
18797;DHT22;9526;52.612;13.300;2022-11-14T15:17:40;10.10;99.90
18797;DHT22;9526;52.612;13.300;2022-11-14T15:20:25;10.10;99.90
18797;DHT22;9526;52.612;13.300;2022-11-14T15:23:18;10.00;99.90
18797;DHT22;9526;52.612;13.300;2022-11-14T15:26:01;9.80;99.90
18797;DHT22;9526;52.612;13.300;2022-11-14T15:28:44;9.70;99.90
18797;DHT22;9526;52.612;13.300;2022-11-14T15:31:28;9.60;99.90
18797;DHT22;9526;52.612;13.300;2022-11-14T15:34:23;9.60;99.90
18797;DHT22;9526;52.612;13.300;2022-11-14T15:37:20;9.50;99.90
18797;DHT22;9526;52.612;13.300;2022-11-14T15:40:16;9.30;99.90
18797;DHT22;9526;52.612;13.300;2022-11-14T15:42:59;9.20;99.90
18797;DHT22;9526;52.612;13.300;2022-11-14T15:45:41;9.10;99.90
18797;DHT22;9526;52.612;13.300;2022-11-14T15:48:25;9.00;99.90
18797;DHT22;9526;52.612;13.300;2022-11-14T15:51:09;8.90;99.90
18797;DHT22;9526;52.612;13.300;2022-11-14T15:53:51;8.80;99.90
18797;DHT22;9526;52.612;13.300;2022-11-14T15:56:34;8.70;99.90
18797;DHT22;9526;52.612;13.300;2022-11-14T15:59:16;8.60;99.90
18797;DHT22;9526;52.612;13.300;2022-11-14T16:02:02;8.60;99.90
18797;DHT22;9526;52.612;13.300;2022-11-14T16:04:49;8.60;99.90
18797;DHT22;9526;52.612;13.300;2022-11-14T16:07:32;8.50;99.90
18797;DHT22;9526;52.612;13.300;2022-11-14T16:10:15;8.40;99.90
18797;DHT22;9526;52.612;13.300;2022-11-14T16:12:58;8.40;99.90
18797;DHT22;9526;52.612;13.300;2022-11-14T16:15:40;8.30;99.90
18797;DHT22;9526;52.612;13.300;2022-11-14T16:18:22;8.30;99.90
18797;DHT22;9526;52.612;13.300;2022-11-14T16:21:08;8.30;99.90
18797;DHT22;9526;52.612;13.300;2022-11-14T16:23:51;8.30;99.90
18797;DHT22;9526;52.612;13.300;2022-11-14T16:26:34;8.20;99.90
18797;DHT22;9526;52.612;13.300;2022-11-14T16:29:17;8.20;99.90
18797;DHT22;9526;52.612;13.300;2022-11-14T16:32:00;8.10;99.90
18797;DHT22;9526;52.612;13.300;2022-11-14T16:34:43;8.00;99.90
18797;DHT22;9526;52.612;13.300;2022-11-14T16:37:27;8.00;99.90
18797;DHT22;9526;52.612;13.300;2022-11-14T16:40:13;7.90;99.90
18797;DHT22;9526;52.612;13.300;2022-11-14T16:42:57;7.80;99.90
18797;DHT22;9526;52.612;13.300;2022-11-14T16:45:39;7.80;99.90
18797;DHT22;9526;52.612;13.300;2022-11-14T16:48:21;7.80;99.90
18797;DHT22;9526;52.612;13.300;2022-11-14T16:51:04;7.70;99.90
18797;DHT22;9526;52.612;13.300;2022-11-14T16:54:10;7.70;99.90
18797;DHT22;9526;52.612;13.300;2022-11-14T16:56:52;7.70;99.90
18797;DHT22;9526;52.612;13.300;2022-11-14T16:59:35;7.60;99.90
18797;DHT22;9526;52.612;13.300;2022-11-14T17:02:17;7.50;99.90
18797;DHT22;9526;52.612;13.300;2022-11-14T17:05:00;7.50;99.90
18797;DHT22;9526;52.612;13.300;2022-11-14T17:07:43;7.50;99.90
18797;DHT22;9526;52.612;13.300;2022-11-14T17:10:26;7.50;99.90
18797;DHT22;9526;52.612;13.300;2022-11-14T17:13:09;7.50;99.90
18797;DHT22;9526;52.612;13.300;2022-11-14T17:15:51;7.50;99.90
18797;DHT22;9526;52.612;13.300;2022-11-14T17:18:33;7.40;99.90
18797;DHT22;9526;52.612;13.300;2022-11-14T17:21:18;7.30;99.90
18797;DHT22;9526;52.612;13.300;2022-11-14T17:24:00;7.30;99.90
18797;DHT22;9526;52.612;13.300;2022-11-14T17:26:44;7.20;99.90
18797;DHT22;9526;52.612;13.300;2022-11-14T17:29:26;7.10;99.90
18797;DHT22;9526;52.612;13.300;2022-11-14T17:32:07;7.10;99.90
18797;DHT22;9526;52.612;13.300;2022-11-14T17:34:49;7.10;99.90
18797;DHT22;9526;52.612;13.300;2022-11-14T17:37:32;7.00;99.90
18797;DHT22;9526;52.612;13.300;2022-11-14T17:40:15;7.00;99.90
18797;DHT22;9526;52.612;13.300;2022-11-14T17:42:58;7.10;99.90
18797;DHT22;9526;52.612;13.300;2022-11-14T17:45:40;7.00;99.90
18797;DHT22;9526;52.612;13.300;2022-11-14T17:48:23;7.10;99.90
18797;DHT22;9526;52.612;13.300;2022-11-14T17:51:06;7.10;99.90